Latest Coastal Weather Observations for Kingscote

IDS60701

Issued at 12:31 pm CST Tuesday 28 June 2022 (issued every 10 minutes, with the page automatically refreshed every 10 minutes)

About coastal observations | Map of coastal stations | Coastal observations for SA | Marine services | Other Formats
Station Details ID: 022841 Name: KINGSCOTE AERO Lat: -35.71 Lon: 137.52 Height: 6.23 m
Data from the previous 72 hours. | See also: Recent months at Kingscote
Date/Time
CST
Wind Sea
Height
m
Swell Vis
km
Cloud Weather Temp
°C
Press
MSL
hPa
Rain since
9am
mm
Dir  Spd
kts
Gust
kts
Height
m
Period
s
Dir
28/12:30pm NNW 12 15 - - - - 10 Partly cloudy - 15.5 1026.2 0.0
28/12:00pm N 10 14 - - - - 10 Cloudy - 14.0 1026.8 0.0
28/11:30am N 14 20 - - - - 10 Cloudy - 13.5 1027.4 0.0
28/11:00am N 10 15 - - - - 10 Partly cloudy - 13.9 1027.6 0.0
28/10:30am N 11 16 - - - - 10 - - 13.9 1027.8 0.0
28/10:00am N 11 16 - - - - 10 - - 13.4 1027.9 0.0
28/09:30am N 9 14 - - - - 10 Partly cloudy - 12.6 1028.0 0.0
28/09:00am NNW 11 16 - - - - 10 - - 11.8 1028.1 0.0
28/08:30am NNW 11 15 - - - - 10 - - 10.8 1028.1 0.0
28/08:00am NNW 8 11 - - - - 10 - - 9.9 1028.4 0.0
28/07:30am N 8 10 - - - - 10 - - 9.8 1028.2 0.0
28/07:00am NNE 3 5 - - - - 10 - - 5.8 1028.1 0.0
28/06:30am NNE 4 4 - - - - 10 - - 6.8 1028.1 0.0
28/06:00am NE 6 7 - - - - 10 - - 6.0 1027.8 0.0
28/05:30am CALM 0 0 - - - - 10 - - 1.7 1027.9 0.0
28/05:00am CALM 0 0 - - - - 10 - - 0.9 1028.2 0.0
28/04:30am CALM 0 0 - - - - 10 - - 1.5 1027.9 0.0
28/04:00am CALM 0 0 - - - - 10 - - 1.6 1028.2 0.0
28/03:30am SW 2 4 - - - - 10 - - 1.5 1028.6 0.0
28/03:00am WNW 3 4 - - - - 10 - - 1.7 1029.0 0.0
28/02:30am CALM 0 1 - - - - 10 - - 1.7 1029.4 0.0
28/02:00am NNE 4 4 - - - - 10 - - 2.6 1029.6 0.0
28/01:30am CALM 0 0 - - - - 10 - - 2.1 1029.7 0.0
28/01:00am CALM 0 0 - - - - 10 - - 1.8 1030.1 0.0
28/12:30am CALM 0 0 - - - - 10 - - 2.9 1030.5 0.0
28/12:00am CALM 0 0 - - - - 10 - - 2.9 1030.7 0.0
 
Date/Time
CST
Wind Sea
Height
m
Swell Vis
km
Cloud Weather Temp
°C
Press
MSL
hPa
Rain since
9am
mm
Dir  Spd
kts
Gust
kts
Height
m
Period
s
Dir
27/11:30pm CALM 0 0 - - - - 10 - - 2.7 1031.0 0.0
27/11:00pm CALM 0 0 - - - - 10 - - 3.7 1031.0 0.0
27/10:30pm CALM 0 0 - - - - 10 - - 4.4 1031.3 0.0
27/10:00pm CALM 0 0 - - - - 10 - - 4.5 1031.7 0.0
27/09:30pm CALM 0 0 - - - - 10 - - 5.5 1032.1 0.0
27/09:00pm N 3 3 - - - - 10 - - 6.1 1032.3 0.0
27/08:30pm N 4 5 - - - - 10 - - 7.8 1032.4 0.0
27/08:00pm N 5 5 - - - - 10 - - 8.6 1032.3 0.0
27/07:30pm NNE 5 6 - - - - 10 - - 9.5 1032.2 0.0
27/07:00pm NNE 5 6 - - - - 10 Partly cloudy - 9.7 1032.6 0.0
27/06:30pm NNE 3 5 - - - - 10 Cloudy - 10.1 1032.8 0.0
27/06:00pm N 3 4 - - - - 10 Partly cloudy - 10.3 1032.8 0.0
27/05:30pm NNE 4 5 - - - - 10 - - 10.7 1032.7 0.0
27/05:00pm N 5 6 - - - - 10 - - 11.6 1032.7 0.0
27/04:30pm N 6 8 - - - - 10 - - 12.4 1032.6 0.0
27/04:00pm N 7 10 - - - - 10 Partly cloudy - 13.1 1032.6 0.0
27/03:30pm NNW 7 11 - - - - 10 Cloudy - 13.8 1032.5 0.0
27/03:00pm NNW 8 11 - - - - 10 Partly cloudy - 13.3 1032.7 0.0
27/02:30pm NNW 6 9 - - - - 10 Cloudy - 13.2 1033.1 0.0
27/02:00pm NNW 8 12 - - - - 10 Cloudy - 13.6 1033.3 0.0
27/01:30pm N 8 11 - - - - 10 Cloudy - 13.7 1033.8 0.0
27/01:00pm NNW 9 13 - - - - 10 Cloudy - 13.8 1034.3 0.0
27/12:30pm N 10 14 - - - - 10 Cloudy - 13.7 1034.7 0.0
27/12:00pm N 11 15 - - - - 10 Cloudy - 13.3 1035.0 0.0
27/11:30am N 5 9 - - - - 10 Cloudy - 13.6 1035.5 0.0
27/11:00am SSE 3 4 - - - - 10 Cloudy - 13.8 1035.6 0.0
27/10:30am CALM 0 0 - - - - 10 Partly cloudy - 13.6 1035.8 0.0
27/10:00am W 3 4 - - - - 10 - - 10.9 1035.8 0.0
27/09:30am WSW 5 6 - - - - 10 - - 8.2 1035.7 0.0
27/09:00am WSW 3 5 - - - - 10 - - 5.8 1035.4 0.0
27/08:30am WSW 3 4 - - - - 10 - - 4.2 1035.1 0.0
27/08:00am SW 3 4 - - - - 10 - - 2.5 1034.8 0.0
27/07:30am SW 4 5 - - - - 10 - - 1.9 1034.5 0.0
27/07:00am WSW 3 4 - - - - 10 - - 2.3 1034.1 0.0
27/06:30am CALM 0 0 - - - - 10 - - 2.0 1033.8 0.0
27/06:00am CALM 0 0 - - - - 10 - - 2.6 1033.4 0.0
27/05:30am CALM 0 0 - - - - 10 - - 3.7 1033.4 0.0
27/05:00am CALM 0 0 - - - - 10 - - 4.0 1033.5 0.0
27/04:30am W 1 3 - - - - 10 Partly cloudy - 5.1 1033.5 0.0
27/04:00am W 5 6 - - - - 10 Cloudy - 5.3 1033.3 0.0
27/03:30am SW 5 6 - - - - 10 Cloudy - 5.5 1033.5 0.0
27/03:00am SSW 4 5 - - - - 10 Mostly cloudy - 5.4 1033.6 0.0
27/02:30am W 4 6 - - - - 10 Cloudy - 5.5 1033.5 0.0
27/02:00am W 4 5 - - - - 10 Partly cloudy - 6.1 1033.5 0.0
27/01:30am WSW 3 5 - - - - 10 Cloudy - 6.5 1033.4 0.0
27/01:00am N 1 4 - - - - 10 Cloudy - 6.7 1033.7 0.0
27/12:30am WNW 5 6 - - - - 10 Cloudy - 6.5 1033.9 0.0
27/12:00am CALM 0 3 - - - - 10 Cloudy - 5.6 1033.9 0.0
 
Date/Time
CST
Wind Sea
Height
m
Swell Vis
km
Cloud Weather Temp
°C
Press
MSL
hPa
Rain since
9am
mm
Dir  Spd
kts
Gust
kts
Height
m
Period
s
Dir
26/11:30pm W 5 5 - - - - 10 Partly cloudy - 4.2 1033.7 0.0
26/11:00pm SW 4 5 - - - - 10 - - 4.0 1033.5 0.0
26/10:30pm SW 3 4 - - - - 10 - - 4.8 1033.0 0.0
26/10:00pm SW 4 5 - - - - 10 - - 4.7 1033.0 0.0
26/09:30pm WSW 5 6 - - - - 10 - - 4.8 1032.8 0.0
26/09:00pm WSW 4 5 - - - - 10 - - 5.6 1032.7 0.0
26/08:30pm WSW 4 5 - - - - 10 - - 7.0 1032.3 0.0
26/08:00pm SW 4 4 - - - - 10 - - 7.3 1032.1 0.0
26/07:30pm SSW 3 3 - - - - 10 Partly cloudy - 10.0 1031.7 0.0
26/07:00pm S 3 4 - - - - 10 Cloudy - 10.7 1031.4 0.0
26/06:30pm S 6 7 - - - - 10 Cloudy - 11.2 1031.1 0.0
26/06:00pm SSW 11 14 - - - - 10 Cloudy - 11.7 1030.9 0.0
26/05:30pm SSW 5 6 - - - - 10 Partly cloudy - 11.5 1030.4 0.0
26/05:00pm SSW 5 7 - - - - 10 Partly cloudy - 12.4 1030.0 0.0
26/04:30pm SSW 8 11 - - - - 10 Partly cloudy - 13.2 1029.7 0.0
26/04:00pm SSW 10 14 - - - - 10 Partly cloudy - 13.4 1029.4 0.0
26/03:30pm SSW 11 16 - - - - 10 Partly cloudy - 14.1 1029.0 0.0
26/03:00pm SW 16 23 - - - - 10 Cloudy - 14.2 1028.7 0.0
26/02:30pm SSW 15 19 - - - - 10 Partly cloudy - 15.1 1028.5 0.0
26/02:00pm SW 16 20 - - - - 10 - - 15.1 1028.1 0.0
26/01:30pm SSW 14 19 - - - - 10 Partly cloudy - 15.2 1027.9 0.0
26/01:00pm SW 13 18 - - - - 10 Partly cloudy - 15.4 1027.9 0.0
26/12:30pm SSW 14 19 - - - - 10 Partly cloudy - 14.6 1028.0 0.0
26/12:00pm SSW 14 19 - - - - 10 Cloudy - 14.5 1028.1 0.0
26/11:30am SSW 11 16 - - - - 10 Partly cloudy - 14.5 1028.2 0.0
26/11:00am SSW 10 15 - - - - 10 Partly cloudy - 13.0 1028.2 0.0
26/10:50am SSW 13 20 - - - - 10 Partly cloudy - 12.4 1028.2 0.0
26/10:30am SW 9 14 - - - - 10 Partly cloudy - 13.5 1028.0 0.0
26/10:00am SW 8 11 - - - - 10 Partly cloudy - 12.8 1028.0 0.0
26/09:30am SW 7 8 - - - - 10 Partly cloudy - 11.9 1027.7 0.0
26/09:00am WNW 6 7 - - - - 10 Partly cloudy - 10.7 1027.2 1.0
26/08:30am WSW 5 7 - - - - 10 Partly cloudy - 10.2 1026.8 1.0
26/08:00am CALM 0 2 - - - - 10 - - 7.9 1026.5 1.0
26/07:30am WSW 5 6 - - - - 10 Partly cloudy - 8.1 1026.2 1.0
26/07:00am WSW 7 10 - - - - 10 Partly cloudy - 9.3 1025.8 1.0
26/06:30am W 6 7 - - - - - Partly cloudy - 8.5 1025.6 1.0
26/06:00am CALM 0 5 - - - - 10 Cloudy - 3.8 1025.2 0.8
26/05:30am NW 4 5 - - - - 10 - - 3.7 1024.6 0.8
26/05:00am CALM 0 0 - - - - 10 - - 3.4 1024.4 0.8
26/04:30am CALM 0 0 - - - - 10 - - 3.7 1024.2 0.8
26/04:00am N 3 4 - - - - 10 - - 4.0 1024.2 0.8
26/03:30am CALM 0 0 - - - - 10 - - 3.8 1024.1 0.8
26/03:00am CALM 0 0 - - - - 10 - - 4.6 1024.1 0.8
26/02:30am CALM 0 3 - - - - 10 - - 5.3 1024.0 0.8
26/02:15am CALM 0 4 - - - - 10 - - 5.1 1024.0 0.8
26/02:00am WNW 3 3 - - - - 2 - - 4.8 1023.8 0.8
26/01:53am WNW 3 4 - - - - 4 - - 5.0 1023.8 0.8
26/01:30am CALM 0 0 - - - - 10 - - 5.1 1023.7 0.8
26/01:00am CALM 0 0 - - - - 10 - - 5.3 1023.7 0.8
26/12:30am WNW 3 3 - - - - 10 Partly cloudy - 6.1 1023.8 0.8
26/12:00am WNW 4 5 - - - - 10 Partly cloudy - 6.9 1023.7 0.8
 
Date/Time
CST
Wind Sea
Height
m
Swell Vis
km
Cloud Weather Temp
°C
Press
MSL
hPa
Rain since
9am
mm
Dir  Spd
kts
Gust
kts
Height
m
Period
s
Dir
25/11:30pm NW 4 5 - - - - 10 - - 7.8 1023.5 0.8
25/11:00pm WNW 7 7 - - - - 10 Partly cloudy - 8.7 1023.7 0.8
25/10:30pm WNW 7 7 - - - - 10 - - 9.3 1023.5 0.8
25/10:00pm W 5 7 - - - - 10 - - 9.7 1023.4 0.8
25/09:30pm W 7 7 - - - - 10 - - 9.9 1023.2 0.8
25/09:00pm W 7 8 - - - - 10 Mostly clear - 10.4 1023.1 0.8
25/08:30pm WNW 7 9 - - - - 10 - - 10.6 1023.0 0.8
25/08:00pm WNW 5 6 - - - - 10 - - 10.7 1022.7 0.8
25/07:30pm W 8 9 - - - - 10 Partly cloudy - 11.5 1022.4 0.8
25/07:00pm W 8 11 - - - - 10 Partly cloudy - 12.3 1022.3 0.6
25/06:30pm WNW 6 7 - - - - 10 - - 11.5 1021.7 0.4
25/06:00pm WNW 6 7 - - - - 10 - - 12.4 1021.3 0.4
25/05:30pm WNW 8 10 - - - - 10 - - 13.2 1021.1 0.4
25/05:00pm WNW 9 13 - - - - 10 - - 14.1 1020.8 0.4
25/04:30pm WNW 8 13 - - - - 10 Partly cloudy - 15.0 1020.5 0.4
25/04:00pm WNW 12 16 - - - - 10 Partly cloudy - 15.2 1020.5 0.4
25/03:30pm WNW 16 20 - - - - 10 Partly cloudy - 16.2 1020.5 0.4
25/03:00pm WNW 13 19 - - - - 10 - - 16.2 1020.2 0.4
25/02:30pm WNW 13 20 - - - - 10 Partly cloudy - 16.7 1020.3 0.4
25/02:00pm WSW 10 14 - - - - 10 Partly cloudy - 15.9 1020.4 0.4
25/01:30pm WNW 16 22 - - - - 10 - - 16.5 1020.7 0.4
25/01:00pm WNW 14 19 - - - - 10 Partly cloudy - 15.6 1021.0 0.4

Other formats

Comma delimited format used in spreadsheet applications
http://www.bom.gov.au/fwo/IDS60701/IDS60701.95807.axf

JavaScript Object Notation format (JSON) in row-major order
http://www.bom.gov.au/fwo/IDS60701/IDS60701.95807.json

Data quality

Most of these data are generated automatically and are frequently updated. Quality checks on data are not normally performed. It is possible for incorrect values to appear. Refer to information at About Latest Weather Observations and please check the disclaimer before using these data.